createdAt,value
2016-04-07T12:50:08.314Z,46.75
2016-04-07T12:51:08.333Z,45.89
2016-04-07T12:52:08.039Z,47.11
2016-04-07T12:53:08.229Z,46.66
2016-04-07T12:54:08.201Z,46.56
2016-04-07T12:55:09.125Z,45.99
2016-04-07T12:56:08.397Z,45.32
2016-04-07T12:57:08.337Z,45.22
2016-04-07T12:58:08.371Z,46.18
2016-04-07T12:59:07.952Z,45.79
2016-04-07T13:00:08.548Z,46.75
2016-04-07T13:01:08.316Z,48.08
2016-04-07T13:02:09.241Z,48.85
2016-04-07T13:03:08.275Z,47.52
2016-04-07T13:05:09.233Z,45.7
2016-04-07T13:06:14.707Z,46.37
2016-04-07T13:07:08.207Z,46.34
2016-04-07T13:08:09.210Z,46.92
2016-04-07T13:10:07.965Z,49.21
2016-04-07T13:11:09.156Z,45.97
2016-04-07T13:12:09.221Z,45.68
2016-04-07T13:13:08.254Z,46.06
2016-04-07T13:14:08.227Z,46.54
2016-04-07T13:15:08.385Z,46.13
2016-04-07T13:16:08.248Z,46.13
2016-04-07T13:17:08.234Z,46.04
2016-04-07T13:18:08.003Z,47.18
2016-04-07T13:19:07.895Z,48.16
2016-04-07T13:20:08.117Z,50.92
2016-04-07T13:21:08.058Z,49.4
2016-04-07T13:22:07.966Z,46.06
2016-04-07T13:23:08.064Z,46.06
2016-04-07T13:25:09.069Z,46.25
2016-04-07T13:26:07.978Z,45.01
2016-04-07T13:27:07.761Z,45.49
2016-04-07T13:28:08.707Z,46.34
2016-04-07T13:29:07.787Z,48.16
2016-04-07T13:30:07.962Z,46.15
2016-04-07T13:31:08.027Z,46.54
2016-04-07T13:32:07.780Z,48.04
2016-04-07T13:33:07.939Z,48.13
2016-04-07T13:34:08.113Z,46.89
2016-04-07T13:35:07.866Z,47.47
2016-04-07T13:36:08.696Z,48.52
2016-04-07T13:37:08.652Z,50.99
2016-04-07T13:38:07.920Z,50.9
2016-04-07T13:39:07.907Z,51.28
2016-04-07T13:40:08.520Z,51.76
